Time;durP1;ratioP1;P1;durP2;ratioP2;P2;SDS_P1;SDS_P2;PMS_P1;PMS_P2;Temp;Humidity;BMP_temperature;BMP_pressure;BME280_temperature;BME280_humidity;BME280_pressure;Samples;Min_cycle;Max_cycle;Signal;HPM_P1;HPM_P2
2022/02/20 00:00:24;;;;;;;;;;;8.30;99.90;;;;;;4177932;28;19986;-54
2022/02/20 00:02:26;;;;;;;;;;;8.30;99.90;;;;;;4176849;28;19979;-53
2022/02/20 00:04:28;;;;;;;;;;;8.30;99.90;;;;;;4176084;28;19933;-53
2022/02/20 00:06:31;;;;;;;;;;;8.30;99.90;;;;;;4177405;28;20436;-53
2022/02/20 00:08:35;;;;;;;;;;;8.30;99.90;;;;;;4171344;28;19959;-54
2022/02/20 00:10:37;;;;;;;;;;;8.30;99.90;;;;;;4176302;28;19924;-52
2022/02/20 00:12:39;;;;;;;;;;;8.30;99.90;;;;;;4176192;28;19925;-53
2022/02/20 00:14:40;;;;;;;;;;;8.30;99.90;;;;;;4171199;28;19932;-52
2022/02/20 00:16:42;;;;;;;;;;;8.30;99.90;;;;;;4163572;28;19932;-53
2022/02/20 00:18:45;;;;;;;;;;;8.30;99.90;;;;;;4175802;28;19935;-53
2022/02/20 00:20:47;;;;;;;;;;;8.30;99.90;;;;;;4173234;28;19925;-54
2022/02/20 00:22:49;;;;;;;;;;;8.40;99.90;;;;;;4161328;28;19928;-55
2022/02/20 00:25:16;;;;;;;;;;;8.30;99.90;;;;;;4176060;28;19931;-53
2022/02/20 00:27:20;;;;;;;;;;;8.40;99.90;;;;;;4175251;28;19928;-53
2022/02/20 00:29:22;;;;;;;;;;;8.40;99.90;;;;;;4175534;28;19978;-54
2022/02/20 00:31:24;;;;;;;;;;;8.50;99.90;;;;;;4177732;28;20019;-54
2022/02/20 00:33:26;;;;;;;;;;;8.50;99.90;;;;;;4174956;28;19932;-54
2022/02/20 00:35:29;;;;;;;;;;;8.50;99.90;;;;;;4176348;28;19980;-53
2022/02/20 00:37:31;;;;;;;;;;;8.50;99.90;;;;;;4177086;28;20387;-55
2022/02/20 00:39:33;;;;;;;;;;;8.50;99.90;;;;;;4175103;28;19930;-52
2022/02/20 00:41:35;;;;;;;;;;;8.40;99.90;;;;;;4175814;28;19963;-53
2022/02/20 00:43:36;;;;;;;;;;;8.40;99.90;;;;;;4174376;28;20020;-53
2022/02/20 00:45:38;;;;;;;;;;;8.40;99.90;;;;;;4171151;28;19984;-54
2022/02/20 00:47:41;;;;;;;;;;;8.40;99.90;;;;;;4162233;28;19933;-53
2022/02/20 00:49:43;;;;;;;;;;;8.30;99.90;;;;;;4167009;28;19929;-53
2022/02/20 00:51:45;;;;;;;;;;;8.30;99.90;;;;;;4169915;28;19932;-53
2022/02/20 00:53:46;;;;;;;;;;;8.40;99.90;;;;;;4176750;28;19928;-53
2022/02/20 00:55:48;;;;;;;;;;;8.40;99.90;;;;;;4175786;28;20011;-53
2022/02/20 00:57:51;;;;;;;;;;;8.50;99.90;;;;;;4175847;28;19979;-53
2022/02/20 00:59:54;;;;;;;;;;;8.50;99.90;;;;;;4177297;28;20427;-53
2022/02/20 01:01:56;;;;;;;;;;;8.50;99.90;;;;;;4171072;28;20452;-54
2022/02/20 01:03:58;;;;;;;;;;;8.50;99.90;;;;;;4168731;28;19929;-53
2022/02/20 01:06:00;;;;;;;;;;;8.40;99.90;;;;;;4164848;28;19975;-54
2022/02/20 01:08:02;;;;;;;;;;;8.40;99.90;;;;;;4172063;28;20043;-54
2022/02/20 01:10:06;;;;;;;;;;;8.40;99.90;;;;;;4166643;28;20043;-53
2022/02/20 01:12:08;;;;;;;;;;;8.40;99.90;;;;;;4166504;28;19948;-53
2022/02/20 01:14:09;;;;;;;;;;;8.50;99.90;;;;;;4172052;28;19978;-54
2022/02/20 01:16:12;;;;;;;;;;;8.50;99.90;;;;;;4167039;28;20408;-53
2022/02/20 01:18:14;;;;;;;;;;;8.50;99.90;;;;;;4167837;28;19932;-53
2022/02/20 01:20:16;;;;;;;;;;;8.60;99.90;;;;;;4174009;28;19936;-54
2022/02/20 01:22:18;;;;;;;;;;;8.60;99.90;;;;;;4166606;28;19955;-54
2022/02/20 01:24:20;;;;;;;;;;;8.50;99.90;;;;;;4170809;28;19948;-54
2022/02/20 01:26:22;;;;;;;;;;;8.50;99.90;;;;;;4166767;28;20012;-54
2022/02/20 01:28:24;;;;;;;;;;;8.50;99.90;;;;;;4164193;28;19936;-54
2022/02/20 01:30:26;;;;;;;;;;;8.50;99.90;;;;;;4171762;28;19983;-53
2022/02/20 01:32:28;;;;;;;;;;;8.50;99.90;;;;;;4173320;28;20316;-54
2022/02/20 01:34:30;;;;;;;;;;;8.50;99.90;;;;;;4169778;28;19925;-54
2022/02/20 01:36:31;;;;;;;;;;;8.40;99.90;;;;;;4175420;28;20036;-55
2022/02/20 01:38:34;;;;;;;;;;;8.30;99.90;;;;;;4171275;28;19932;-54
2022/02/20 01:40:35;;;;;;;;;;;8.30;99.90;;;;;;4174521;28;20012;-54
2022/02/20 01:42:37;;;;;;;;;;;8.20;99.90;;;;;;4163018;28;19971;-54
2022/02/20 01:44:39;;;;;;;;;;;8.10;99.90;;;;;;4169701;28;20599;-54
2022/02/20 01:46:48;;;;;;;;;;;8.10;99.90;;;;;;4172342;28;20019;-55
2022/02/20 01:48:50;;;;;;;;;;;8.10;99.90;;;;;;4163668;28;20046;-53
2022/02/20 01:50:52;;;;;;;;;;;8.10;99.90;;;;;;4166664;28;20027;-54
2022/02/20 01:52:54;;;;;;;;;;;8.20;99.90;;;;;;4161686;28;20011;-54
2022/02/20 01:54:56;;;;;;;;;;;8.20;99.90;;;;;;4176553;28;19929;-53
2022/02/20 01:56:58;;;;;;;;;;;8.20;99.90;;;;;;4174396;28;19928;-54
2022/02/20 01:59:01;;;;;;;;;;;8.20;99.90;;;;;;4175395;28;20460;-54
2022/02/20 02:01:04;;;;;;;;;;;8.20;99.90;;;;;;4176937;28;19933;-54
2022/02/20 02:03:06;;;;;;;;;;;8.20;99.90;;;;;;4174622;28;20389;-54
2022/02/20 02:05:08;;;;;;;;;;;8.20;99.90;;;;;;4176750;28;20023;-54
2022/02/20 02:07:10;;;;;;;;;;;8.20;99.90;;;;;;4176617;28;19947;-54
2022/02/20 02:09:13;;;;;;;;;;;8.20;99.90;;;;;;4174181;28;20389;-54
2022/02/20 02:11:15;;;;;;;;;;;8.10;99.90;;;;;;4176603;28;19925;-53
2022/02/20 02:13:17;;;;;;;;;;;8.00;99.90;;;;;;4173865;28;19933;-54
2022/02/20 02:15:19;;;;;;;;;;;8.00;99.90;;;;;;4172330;28;20024;-54
2022/02/20 02:17:21;;;;;;;;;;;8.10;99.90;;;;;;4176141;28;20444;-53
2022/02/20 02:19:23;;;;;;;;;;;8.00;99.90;;;;;;4175411;28;19933;-54
2022/02/20 02:21:26;;;;;;;;;;;8.20;99.90;;;;;;4171658;28;19929;-54
2022/02/20 02:23:27;;;;;;;;;;;8.20;99.90;;;;;;4172559;28;19968;-54
2022/02/20 02:25:30;;;;;;;;;;;8.10;99.90;;;;;;4171945;28;20023;-54
2022/02/20 02:27:32;;;;;;;;;;;8.00;99.90;;;;;;4173080;28;19932;-55
2022/02/20 02:29:34;;;;;;;;;;;8.00;99.90;;;;;;4176946;28;19932;-55
2022/02/20 02:31:36;;;;;;;;;;;8.00;99.90;;;;;;4166423;28;20381;-54
2022/02/20 02:33:38;;;;;;;;;;;8.00;99.90;;;;;;4165725;28;21130;-54
2022/02/20 02:35:40;;;;;;;;;;;8.00;99.90;;;;;;4160618;28;19929;-53
2022/02/20 02:37:42;;;;;;;;;;;8.00;99.90;;;;;;4165225;28;20027;-54
2022/02/20 02:39:44;;;;;;;;;;;8.00;99.90;;;;;;4167530;28;20662;-54
2022/02/20 02:41:46;;;;;;;;;;;8.00;99.90;;;;;;4165659;28;20016;-54
2022/02/20 02:43:48;;;;;;;;;;;8.00;99.90;;;;;;4170721;28;19925;-55
2022/02/20 02:45:50;;;;;;;;;;;7.90;99.90;;;;;;4166407;28;19925;-54
2022/02/20 02:47:52;;;;;;;;;;;8.00;99.90;;;;;;4167613;28;19987;-54
2022/02/20 02:49:58;;;;;;;;;;;8.10;99.90;;;;;;4176590;28;19928;-53
2022/02/20 02:52:00;;;;;;;;;;;8.10;99.90;;;;;;4178260;28;19925;-54
2022/02/20 02:54:07;;;;;;;;;;;8.10;99.90;;;;;;4173856;28;19925;-54
2022/02/20 02:56:09;;;;;;;;;;;8.10;99.90;;;;;;4174359;28;20557;-53
2022/02/20 02:58:16;;;;;;;;;;;8.20;99.90;;;;;;4166559;28;20368;-54
2022/02/20 03:00:18;;;;;;;;;;;8.20;99.90;;;;;;4169727;28;20309;-54
2022/02/20 03:02:20;;;;;;;;;;;8.20;99.90;;;;;;4174159;28;19928;-54
2022/02/20 03:04:22;;;;;;;;;;;8.10;99.90;;;;;;4176306;28;19932;-54
2022/02/20 03:06:24;;;;;;;;;;;8.20;99.90;;;;;;4179389;28;20389;-54
2022/02/20 03:08:26;;;;;;;;;;;8.10;99.90;;;;;;4172506;28;19925;-54
2022/02/20 03:10:29;;;;;;;;;;;8.10;99.90;;;;;;4165912;28;19925;-55
2022/02/20 03:12:31;;;;;;;;;;;8.10;99.90;;;;;;4178232;28;19949;-55
2022/02/20 03:14:33;;;;;;;;;;;8.10;99.90;;;;;;4176297;28;19963;-55
2022/02/20 03:16:35;;;;;;;;;;;8.10;99.90;;;;;;4176737;28;19963;-55
2022/02/20 03:18:36;;;;;;;;;;;8.10;99.90;;;;;;4177749;28;19925;-55
2022/02/20 03:20:38;;;;;;;;;;;8.10;99.90;;;;;;4176352;28;19932;-55
2022/02/20 03:22:40;;;;;;;;;;;8.20;99.90;;;;;;4171001;28;19940;-54
2022/02/20 03:24:42;;;;;;;;;;;8.10;99.90;;;;;;4177507;28;20432;-53
2022/02/20 03:26:44;;;;;;;;;;;8.10;99.90;;;;;;4170201;28;21446;-54
2022/02/20 03:28:46;;;;;;;;;;;8.10;99.90;;;;;;4173202;28;19925;-54
2022/02/20 03:30:48;;;;;;;;;;;8.10;99.90;;;;;;4178299;28;19971;-54
2022/02/20 03:32:50;;;;;;;;;;;8.10;99.90;;;;;;4175817;28;19928;-54
2022/02/20 03:34:52;;;;;;;;;;;8.20;99.90;;;;;;4178681;28;20011;-54
2022/02/20 03:36:55;;;;;;;;;;;8.20;99.90;;;;;;4177413;28;20308;-54
2022/02/20 03:38:57;;;;;;;;;;;8.20;99.90;;;;;;4172956;28;20393;-53
2022/02/20 03:40:59;;;;;;;;;;;8.20;99.90;;;;;;4176422;28;19925;-54
2022/02/20 03:43:01;;;;;;;;;;;8.20;99.90;;;;;;4176953;28;19929;-54
2022/02/20 03:45:04;;;;;;;;;;;8.20;99.90;;;;;;4174217;28;20028;-54
2022/02/20 03:47:05;;;;;;;;;;;8.20;99.90;;;;;;4178571;28;19925;-55
2022/02/20 03:49:07;;;;;;;;;;;8.10;99.90;;;;;;4168344;28;20305;-53
2022/02/20 03:51:09;;;;;;;;;;;8.10;99.90;;;;;;4165608;28;19980;-53
2022/02/20 03:53:11;;;;;;;;;;;8.10;99.90;;;;;;4178850;28;19925;-54
2022/02/20 03:55:13;;;;;;;;;;;8.10;99.90;;;;;;4173754;28;20652;-54
2022/02/20 03:57:15;;;;;;;;;;;8.00;99.90;;;;;;4176887;28;20058;-55
2022/02/20 03:59:17;;;;;;;;;;;8.00;99.90;;;;;;4177882;28;20352;-54
2022/02/20 04:01:19;;;;;;;;;;;8.00;99.90;;;;;;4175190;28;19952;-54
2022/02/20 04:03:21;;;;;;;;;;;8.00;99.90;;;;;;4176709;28;19937;-54
2022/02/20 04:05:23;;;;;;;;;;;8.00;99.90;;;;;;4175540;28;20727;-54
2022/02/20 04:07:25;;;;;;;;;;;8.00;99.90;;;;;;4175383;28;19971;-54
2022/02/20 04:09:27;;;;;;;;;;;8.10;99.90;;;;;;4176648;28;20375;-54
2022/02/20 04:11:29;;;;;;;;;;;8.10;99.90;;;;;;4164449;28;19925;-54
2022/02/20 04:13:31;;;;;;;;;;;8.10;99.90;;;;;;4170497;28;20096;-54
2022/02/20 04:15:33;;;;;;;;;;;8.10;99.90;;;;;;4165043;28;19933;-55
2022/02/20 04:17:42;;;;;;;;;;;8.10;99.90;;;;;;4173092;28;19958;-55
2022/02/20 04:19:44;;;;;;;;;;;8.20;99.90;;;;;;4176235;28;19929;-54
2022/02/20 04:21:46;;;;;;;;;;;8.20;99.90;;;;;;4175936;28;19933;-54
2022/02/20 04:23:48;;;;;;;;;;;8.20;99.90;;;;;;4177391;28;19925;-55
2022/02/20 04:25:50;;;;;;;;;;;8.20;99.90;;;;;;4176119;28;19932;-54
2022/02/20 04:27:52;;;;;;;;;;;8.20;99.90;;;;;;4176790;28;19936;-54
2022/02/20 04:29:54;;;;;;;;;;;8.20;99.90;;;;;;4165856;28;20325;-55
2022/02/20 04:31:56;;;;;;;;;;;8.30;99.90;;;;;;4168995;28;20062;-54
2022/02/20 04:33:58;;;;;;;;;;;8.20;99.90;;;;;;4163285;28;20392;-53
2022/02/20 04:36:00;;;;;;;;;;;8.20;99.90;;;;;;4168305;28;19932;-55
2022/02/20 04:38:02;;;;;;;;;;;8.20;99.90;;;;;;4168980;28;19964;-55
2022/02/20 04:40:04;;;;;;;;;;;8.20;99.90;;;;;;4163574;28;19932;-54
2022/02/20 04:42:06;;;;;;;;;;;8.20;99.90;;;;;;4175792;28;19929;-54
2022/02/20 04:44:08;;;;;;;;;;;8.20;99.90;;;;;;4176146;28;19929;-54
2022/02/20 04:46:10;;;;;;;;;;;8.20;99.90;;;;;;4163040;28;19976;-54
2022/02/20 04:48:12;;;;;;;;;;;8.20;99.90;;;;;;4171640;28;19936;-54
2022/02/20 04:50:14;;;;;;;;;;;8.10;99.90;;;;;;4168251;28;19929;-54
2022/02/20 04:52:16;;;;;;;;;;;8.00;99.90;;;;;;4177516;28;19967;-54
2022/02/20 04:54:18;;;;;;;;;;;7.90;99.90;;;;;;4175405;28;20508;-55
2022/02/20 04:56:20;;;;;;;;;;;7.90;99.90;;;;;;4175820;28;19924;-54
2022/02/20 04:58:22;;;;;;;;;;;7.90;99.90;;;;;;4168580;28;20020;-54
2022/02/20 05:00:24;;;;;;;;;;;7.90;99.90;;;;;;4175337;28;19956;-54
2022/02/20 05:02:26;;;;;;;;;;;7.90;99.90;;;;;;4166212;28;19929;-55
2022/02/20 05:04:28;;;;;;;;;;;7.90;99.90;;;;;;4170541;28;19964;-53
2022/02/20 05:06:30;;;;;;;;;;;8.00;99.90;;;;;;4172816;28;19929;-54
2022/02/20 05:08:32;;;;;;;;;;;7.90;99.90;;;;;;4175735;28;19931;-53
2022/02/20 05:10:34;;;;;;;;;;;7.90;99.90;;;;;;4172395;28;19972;-54
2022/02/20 05:12:36;;;;;;;;;;;7.90;99.90;;;;;;4173809;28;20027;-54
2022/02/20 05:14:38;;;;;;;;;;;7.90;99.90;;;;;;4174560;28;20019;-54
2022/02/20 05:16:40;;;;;;;;;;;7.90;99.90;;;;;;4164581;28;20036;-54
2022/02/20 05:18:42;;;;;;;;;;;7.90;99.90;;;;;;4174029;28;20388;-55
2022/02/20 05:20:44;;;;;;;;;;;7.80;99.90;;;;;;4171043;28;19972;-54
2022/02/20 05:22:46;;;;;;;;;;;7.80;99.90;;;;;;4177047;28;19931;-51
2022/02/20 05:24:50;;;;;;;;;;;7.80;99.90;;;;;;4170385;28;20330;-53
2022/02/20 05:26:52;;;;;;;;;;;7.80;99.90;;;;;;4166545;28;19929;-53
2022/02/20 05:28:54;;;;;;;;;;;7.90;99.90;;;;;;4168562;28;19956;-54
2022/02/20 05:30:56;;;;;;;;;;;7.90;99.90;;;;;;4171445;28;19936;-54
2022/02/20 05:32:58;;;;;;;;;;;7.90;99.90;;;;;;4173943;28;19975;-54
2022/02/20 05:35:00;;;;;;;;;;;7.90;99.90;;;;;;4176225;28;19929;-54
2022/02/20 05:37:02;;;;;;;;;;;8.00;99.90;;;;;;4172784;28;20006;-53
2022/02/20 05:39:04;;;;;;;;;;;8.00;99.90;;;;;;4175240;28;19925;-54
2022/02/20 05:41:06;;;;;;;;;;;8.00;99.90;;;;;;4176619;28;19978;-54
2022/02/20 05:43:08;;;;;;;;;;;8.00;99.90;;;;;;4172650;28;19933;-54
2022/02/20 05:45:10;;;;;;;;;;;8.00;99.90;;;;;;4175924;28;19960;-55
2022/02/20 05:47:14;;;;;;;;;;;8.00;99.90;;;;;;4176284;28;20567;-55
2022/02/20 05:49:16;;;;;;;;;;;8.00;99.90;;;;;;4175163;28;20391;-54
2022/02/20 05:51:17;;;;;;;;;;;8.00;99.90;;;;;;4176763;28;20485;-54
2022/02/20 05:53:19;;;;;;;;;;;8.00;99.90;;;;;;4174207;28;19975;-54
2022/02/20 05:55:22;;;;;;;;;;;8.00;99.90;;;;;;4174141;28;19979;-54
2022/02/20 05:57:24;;;;;;;;;;;8.00;99.90;;;;;;4177051;28;19959;-54
2022/02/20 05:59:26;;;;;;;;;;;8.00;99.90;;;;;;4174157;28;20616;-54
2022/02/20 06:01:31;;;;;;;;;;;7.90;99.90;;;;;;4175075;28;19932;-53
2022/02/20 06:03:33;;;;;;;;;;;7.90;99.90;;;;;;4176913;28;19925;-55
2022/02/20 06:05:35;;;;;;;;;;;7.90;99.90;;;;;;4166196;28;20405;-53
2022/02/20 06:07:40;;;;;;;;;;;7.90;99.90;;;;;;4164952;28;19955;-54
2022/02/20 06:09:42;;;;;;;;;;;7.90;99.90;;;;;;4176801;28;19951;-54
2022/02/20 06:11:44;;;;;;;;;;;7.80;99.90;;;;;;4174881;28;20458;-55
2022/02/20 06:13:46;;;;;;;;;;;7.90;99.90;;;;;;4176302;28;20035;-54
2022/02/20 06:15:47;;;;;;;;;;;7.90;99.90;;;;;;4180290;28;20015;-54
2022/02/20 06:17:49;;;;;;;;;;;7.80;99.90;;;;;;4174869;28;19978;-54
2022/02/20 06:19:51;;;;;;;;;;;7.80;99.90;;;;;;4177076;28;20015;-55
2022/02/20 06:21:53;;;;;;;;;;;7.80;99.90;;;;;;4166083;28;20389;-53
2022/02/20 06:23:55;;;;;;;;;;;7.70;99.90;;;;;;4170040;28;19935;-55
2022/02/20 06:25:57;;;;;;;;;;;7.70;99.90;;;;;;4165351;28;20368;-53
2022/02/20 06:27:59;;;;;;;;;;;7.60;99.90;;;;;;4173899;28;19990;-54
2022/02/20 06:30:01;;;;;;;;;;;7.60;99.90;;;;;;4174820;28;19925;-54
2022/02/20 06:32:03;;;;;;;;;;;7.60;99.90;;;;;;4166051;28;20420;-55
2022/02/20 06:34:05;;;;;;;;;;;7.60;99.90;;;;;;4169919;28;19951;-54
2022/02/20 06:36:07;;;;;;;;;;;7.60;99.90;;;;;;4172920;28;19925;-53
2022/02/20 06:38:09;;;;;;;;;;;7.60;99.90;;;;;;4165420;28;20504;-52
2022/02/20 06:40:12;;;;;;;;;;;7.60;99.90;;;;;;4175674;28;20397;-53
2022/02/20 06:42:14;;;;;;;;;;;7.60;99.90;;;;;;4173647;28;20642;-53
2022/02/20 06:44:16;;;;;;;;;;;7.60;99.90;;;;;;4166599;28;20011;-54
2022/02/20 06:46:18;;;;;;;;;;;7.60;99.90;;;;;;4174089;28;19996;-54
2022/02/20 06:48:20;;;;;;;;;;;7.70;99.90;;;;;;4172048;28;19960;-54
2022/02/20 06:50:22;;;;;;;;;;;7.70;99.90;;;;;;4169378;28;19925;-53
2022/02/20 06:52:24;;;;;;;;;;;7.70;99.90;;;;;;4169338;28;20027;-54
2022/02/20 06:54:27;;;;;;;;;;;7.80;99.90;;;;;;4170817;28;19939;-53
2022/02/20 06:56:29;;;;;;;;;;;7.80;99.90;;;;;;4171182;28;20051;-54
2022/02/20 06:58:31;;;;;;;;;;;7.90;99.90;;;;;;4173815;28;19953;-54
2022/02/20 07:00:33;;;;;;;;;;;7.90;99.90;;;;;;4177447;28;19931;-54
2022/02/20 07:02:36;;;;;;;;;;;7.90;99.90;;;;;;4168745;28;20016;-53
2022/02/20 07:04:38;;;;;;;;;;;7.90;99.90;;;;;;4193410;28;19964;-54
2022/02/20 07:06:42;;;;;;;;;;;8.00;99.90;;;;;;4171298;28;19964;-54
2022/02/20 07:08:44;;;;;;;;;;;8.00;99.90;;;;;;4172845;28;20016;-54
2022/02/20 07:10:46;;;;;;;;;;;8.00;99.90;;;;;;4177903;28;19933;-53
2022/02/20 07:12:48;;;;;;;;;;;8.00;99.90;;;;;;4172325;28;19933;-53
2022/02/20 07:14:51;;;;;;;;;;;8.00;99.90;;;;;;4179504;28;19924;-53
2022/02/20 07:16:53;;;;;;;;;;;8.00;99.90;;;;;;4178580;28;19925;-54
2022/02/20 07:18:55;;;;;;;;;;;8.00;99.90;;;;;;4174294;28;19928;-54
2022/02/20 07:20:57;;;;;;;;;;;8.10;99.90;;;;;;4178671;28;20296;-54
2022/02/20 07:22:59;;;;;;;;;;;8.10;99.90;;;;;;4176972;28;19929;-55
2022/02/20 07:25:02;;;;;;;;;;;8.10;99.90;;;;;;4175906;28;20508;-54
2022/02/20 07:27:05;;;;;;;;;;;8.20;99.90;;;;;;4180271;28;19970;-54
2022/02/20 07:29:07;;;;;;;;;;;8.20;99.90;;;;;;4175111;28;20024;-53
2022/02/20 07:31:09;;;;;;;;;;;8.20;99.90;;;;;;4177381;28;19971;-54
2022/02/20 07:33:12;;;;;;;;;;;8.20;99.90;;;;;;4180096;28;20455;-53
2022/02/20 07:35:15;;;;;;;;;;;8.30;99.90;;;;;;4173238;28;19925;-53
2022/02/20 07:37:17;;;;;;;;;;;8.30;99.90;;;;;;4167076;28;19939;-54
2022/02/20 07:39:19;;;;;;;;;;;8.40;99.90;;;;;;4180075;28;19932;-54
2022/02/20 07:41:20;;;;;;;;;;;8.30;99.90;;;;;;4177147;28;19971;-54
2022/02/20 07:43:22;;;;;;;;;;;8.30;99.90;;;;;;4178635;28;19967;-54
2022/02/20 07:45:25;;;;;;;;;;;8.30;99.90;;;;;;4180179;28;20400;-54
2022/02/20 07:47:26;;;;;;;;;;;8.30;99.90;;;;;;4176827;28;20047;-54
2022/02/20 07:49:29;;;;;;;;;;;8.30;99.90;;;;;;4176851;28;19936;-54
2022/02/20 07:51:31;;;;;;;;;;;8.40;99.90;;;;;;4178963;28;19960;-53
2022/02/20 07:53:33;;;;;;;;;;;8.30;99.90;;;;;;4172796;28;19932;-52
2022/02/20 07:55:35;;;;;;;;;;;8.30;99.90;;;;;;4165767;28;19925;-53
2022/02/20 07:57:37;;;;;;;;;;;8.30;99.90;;;;;;4178352;28;19929;-53
2022/02/20 07:59:39;;;;;;;;;;;8.30;99.90;;;;;;4175422;28;20435;-53
2022/02/20 08:01:41;;;;;;;;;;;8.40;99.90;;;;;;4164571;28;19979;-54
2022/02/20 08:03:43;;;;;;;;;;;8.40;99.90;;;;;;4177936;28;20389;-54
2022/02/20 08:05:45;;;;;;;;;;;8.60;99.90;;;;;;4177460;28;19925;-54
2022/02/20 08:07:46;;;;;;;;;;;8.60;99.90;;;;;;4179651;28;20397;-54
2022/02/20 08:09:48;;;;;;;;;;;8.70;99.90;;;;;;4177825;28;20443;-54
2022/02/20 08:11:51;;;;;;;;;;;8.90;99.90;;;;;;4176582;28;19971;-53
2022/02/20 08:13:52;;;;;;;;;;;9.00;99.90;;;;;;4179916;28;20374;-55
2022/02/20 08:15:55;;;;;;;;;;;9.00;99.90;;;;;;4176843;28;19925;-53
2022/02/20 08:17:58;;;;;;;;;;;9.00;99.90;;;;;;4177058;28;19968;-54
2022/02/20 08:20:00;;;;;;;;;;;9.00;99.90;;;;;;4163064;28;19925;-53
2022/02/20 08:22:02;;;;;;;;;;;9.40;99.90;;;;;;4171165;28;20356;-54
2022/02/20 08:24:04;;;;;;;;;;;9.60;99.90;;;;;;4167566;28;19925;-52
2022/02/20 08:26:06;;;;;;;;;;;9.50;99.90;;;;;;4166292;28;20377;-53
2022/02/20 08:28:08;;;;;;;;;;;9.40;99.90;;;;;;4172881;28;19926;-54
2022/02/20 08:30:11;;;;;;;;;;;9.40;99.90;;;;;;4167782;28;19960;-53
2022/02/20 08:32:13;;;;;;;;;;;9.40;99.90;;;;;;4167086;28;19963;-54
2022/02/20 08:34:15;;;;;;;;;;;9.40;99.90;;;;;;4174108;28;19924;-54
2022/02/20 08:36:17;;;;;;;;;;;9.40;99.90;;;;;;4162463;28;19933;-52
2022/02/20 08:38:22;;;;;;;;;;;9.40;99.90;;;;;;4169754;28;19925;-53
2022/02/20 08:40:24;;;;;;;;;;;9.50;99.90;;;;;;4169950;28;19936;-53
2022/02/20 08:42:26;;;;;;;;;;;9.70;99.90;;;;;;4166425;28;20023;-54
2022/02/20 08:44:27;;;;;;;;;;;9.70;99.90;;;;;;4172284;28;20032;-53
2022/02/20 08:46:30;;;;;;;;;;;9.70;99.90;;;;;;4172767;28;19972;-53
2022/02/20 08:48:36;;;;;;;;;;;9.90;99.90;;;;;;4168371;28;19929;-53
2022/02/20 08:50:42;;;;;;;;;;;10.00;99.90;;;;;;4173936;28;20420;-53
2022/02/20 08:52:45;;;;;;;;;;;9.90;99.90;;;;;;4175395;28;20006;-53
2022/02/20 08:54:49;;;;;;;;;;;10.00;99.90;;;;;;4169379;28;19939;-53
2022/02/20 08:56:50;;;;;;;;;;;10.10;99.90;;;;;;4174400;28;19948;-54
2022/02/20 08:58:55;;;;;;;;;;;10.20;99.90;;;;;;4174034;28;19924;-54
2022/02/20 09:00:58;;;;;;;;;;;10.20;99.90;;;;;;4170661;28;20357;-53
2022/02/20 09:03:00;;;;;;;;;;;10.40;99.90;;;;;;4176855;28;19952;-54
2022/02/20 09:05:02;;;;;;;;;;;10.40;99.90;;;;;;4171995;28;19955;-53
2022/02/20 09:07:04;;;;;;;;;;;10.60;99.90;;;;;;4175896;28;19925;-54
2022/02/20 09:09:07;;;;;;;;;;;10.80;99.90;;;;;;4178670;28;19925;-53
2022/02/20 09:11:08;;;;;;;;;;;10.90;99.90;;;;;;4171274;28;20043;-54
2022/02/20 09:13:11;;;;;;;;;;;11.00;99.90;;;;;;4173940;28;19933;-53
2022/02/20 09:15:12;;;;;;;;;;;11.30;99.90;;;;;;4177315;28;19983;-53
2022/02/20 09:17:14;;;;;;;;;;;11.40;99.90;;;;;;4173959;28;19929;-53
2022/02/20 09:19:16;;;;;;;;;;;11.50;99.90;;;;;;4176276;28;20270;-54
2022/02/20 09:21:18;;;;;;;;;;;11.60;99.90;;;;;;4178467;28;19929;-53
2022/02/20 09:23:20;;;;;;;;;;;11.40;99.90;;;;;;4176707;28;19924;-53
2022/02/20 09:25:22;;;;;;;;;;;11.40;99.90;;;;;;4177034;28;20039;-54
2022/02/20 09:27:24;;;;;;;;;;;11.60;99.90;;;;;;4167490;28;20451;-54
2022/02/20 09:29:26;;;;;;;;;;;11.70;99.90;;;;;;4168481;28;20377;-54
2022/02/20 09:31:28;;;;;;;;;;;11.80;99.90;;;;;;4178611;28;20352;-54
2022/02/20 09:33:30;;;;;;;;;;;11.80;99.90;;;;;;4176560;28;19925;-53
2022/02/20 09:35:32;;;;;;;;;;;12.00;99.90;;;;;;4174840;28;20011;-54
2022/02/20 09:37:34;;;;;;;;;;;12.20;99.90;;;;;;4178891;28;20424;-54
2022/02/20 09:39:36;;;;;;;;;;;12.30;99.90;;;;;;4174462;28;19928;-54
2022/02/20 09:41:38;;;;;;;;;;;12.30;99.90;;;;;;4176341;28;19959;-54
2022/02/20 09:43:40;;;;;;;;;;;12.50;99.90;;;;;;4162402;28;19925;-55
2022/02/20 09:45:47;;;;;;;;;;;12.50;99.90;;;;;;4174473;28;19925;-54
2022/02/20 09:47:48;;;;;;;;;;;12.70;99.90;;;;;;4177998;28;20292;-54
2022/02/20 09:49:51;;;;;;;;;;;12.80;99.90;;;;;;4181839;28;19978;-54
2022/02/20 09:51:53;;;;;;;;;;;12.70;99.90;;;;;;4171477;28;19929;-53
2022/02/20 09:53:57;;;;;;;;;;;12.80;99.90;;;;;;4169535;28;19925;-53
2022/02/20 09:55:59;;;;;;;;;;;13.00;99.90;;;;;;4181971;28;19936;-54
2022/02/20 09:58:00;;;;;;;;;;;13.00;99.90;;;;;;4179890;28;20032;-54
2022/02/20 10:00:05;;;;;;;;;;;13.10;99.90;;;;;;4179246;28;19925;-53
2022/02/20 10:02:08;;;;;;;;;;;13.30;99.90;;;;;;4181246;28;19986;-54
2022/02/20 10:04:34;;;;;;;;;;;13.00;99.90;;;;;;4170434;28;19925;-54
2022/02/20 10:06:46;;;;;;;;;;;13.30;99.90;;;;;;4169653;28;19925;-54
2022/02/20 10:08:49;;;;;;;;;;;13.60;99.90;;;;;;4181204;28;19929;-54
2022/02/20 10:10:51;;;;;;;;;;;13.70;99.90;;;;;;4170530;28;19979;-54
2022/02/20 10:12:58;;;;;;;;;;;13.50;99.90;;;;;;4171478;28;19925;-54
2022/02/20 10:15:00;;;;;;;;;;;13.60;99.90;;;;;;4165214;28;19925;-54
2022/02/20 10:17:13;;;;;;;;;;;13.70;99.90;;;;;;4179384;28;19928;-54
2022/02/20 10:19:15;;;;;;;;;;;13.90;99.90;;;;;;4175638;28;19925;-54
2022/02/20 10:21:18;;;;;;;;;;;13.90;99.90;;;;;;4166010;28;20429;-54
2022/02/20 10:23:20;;;;;;;;;;;13.70;99.90;;;;;;4181283;28;19929;-55
2022/02/20 10:25:22;;;;;;;;;;;13.80;99.90;;;;;;4179520;28;19925;-54
2022/02/20 10:27:24;;;;;;;;;;;14.20;99.90;;;;;;4179617;28;19975;-54
2022/02/20 10:29:26;;;;;;;;;;;14.00;99.90;;;;;;4176637;28;19932;-54
2022/02/20 10:31:47;;;;;;;;;;;13.90;99.90;;;;;;4173769;28;19933;-53
2022/02/20 10:34:05;;;;;;;;;;;14.40;99.90;;;;;;4168972;28;20041;-55
2022/02/20 10:36:15;;;;;;;;;;;14.30;99.90;;;;;;4173240;28;19925;-55
2022/02/20 10:38:18;;;;;;;;;;;13.90;99.90;;;;;;4178818;28;19998;-54
2022/02/20 10:40:27;;;;;;;;;;;14.20;99.90;;;;;;4170349;28;19924;-54
2022/02/20 10:42:35;;;;;;;;;;;14.00;99.90;;;;;;4174270;28;20019;-54
2022/02/20 10:44:56;;;;;;;;;;;14.20;99.90;;;;;;4176493;28;19928;-54
2022/02/20 10:47:09;;;;;;;;;;;14.30;99.90;;;;;;4170496;28;19929;-54
2022/02/20 10:49:26;;;;;;;;;;;14.50;99.90;;;;;;4182638;28;19924;-54
2022/02/20 10:51:39;;;;;;;;;;;14.50;99.90;;;;;;4179921;28;19933;-54
2022/02/20 10:53:41;;;;;;;;;;;14.30;99.90;;;;;;4171026;28;19929;-53
2022/02/20 10:55:44;;;;;;;;;;;14.50;99.90;;;;;;4169180;28;20059;-54
2022/02/20 10:57:49;;;;;;;;;;;14.80;99.90;;;;;;4167079;28;19932;-55
2022/02/20 10:59:51;;;;;;;;;;;15.20;99.90;;;;;;4174270;28;19932;-54
2022/02/20 11:02:12;;;;;;;;;;;14.90;99.90;;;;;;4171947;28;19933;-54
2022/02/20 11:04:15;;;;;;;;;;;15.00;99.90;;;;;;4177930;28;19929;-54
2022/02/20 11:06:17;;;;;;;;;;;15.30;99.90;;;;;;4171359;28;19940;-55
2022/02/20 11:08:20;;;;;;;;;;;15.70;99.90;;;;;;4172742;28;20309;-53
2022/02/20 11:10:22;;;;;;;;;;;16.00;99.90;;;;;;4169110;28;19929;-53
2022/02/20 11:12:24;;;;;;;;;;;15.90;99.90;;;;;;4172558;28;19979;-54
2022/02/20 11:14:26;;;;;;;;;;;15.70;99.90;;;;;;4169252;28;20445;-53
2022/02/20 11:16:31;;;;;;;;;;;15.00;99.90;;;;;;4171364;28;19986;-55
2022/02/20 11:18:38;;;;;;;;;;;15.10;99.90;;;;;;4173784;28;19986;-54
2022/02/20 11:20:42;;;;;;;;;;;15.30;99.90;;;;;;4166713;28;19978;-54
2022/02/20 11:22:46;;;;;;;;;;;15.20;99.90;;;;;;4176335;28;19925;-54
2022/02/20 11:24:49;;;;;;;;;;;15.30;99.90;;;;;;4175799;28;19929;-54
2022/02/20 11:27:13;;;;;;;;;;;15.30;99.90;;;;;;4178590;28;20385;-55
2022/02/20 11:29:15;;;;;;;;;;;15.50;99.90;;;;;;4175035;28;20299;-54
2022/02/20 11:31:20;;;;;;;;;;;15.20;99.90;;;;;;4175452;28;19925;-54
2022/02/20 11:33:22;;;;;;;;;;;15.00;99.90;;;;;;4171345;28;19979;-54
2022/02/20 11:35:24;;;;;;;;;;;15.10;99.90;;;;;;4162178;28;20031;-54
2022/02/20 11:37:45;;;;;;;;;;;15.40;99.90;;;;;;4169949;28;19929;-54
2022/02/20 11:40:01;;;;;;;;;;;15.50;99.90;;;;;;4166735;28;19939;-54
2022/02/20 11:42:11;;;;;;;;;;;15.50;99.90;;;;;;4167016;28;20039;-54
2022/02/20 11:44:14;;;;;;;;;;;15.30;99.90;;;;;;4163439;28;20019;-55
2022/02/20 11:46:23;;;;;;;;;;;15.20;99.90;;;;;;4162897;28;20416;-54
2022/02/20 11:48:24;;;;;;;;;;;15.20;99.90;;;;;;4165278;28;20036;-54
2022/02/20 11:50:26;;;;;;;;;;;15.10;99.90;;;;;;4171651;28;19975;-54
2022/02/20 11:52:44;;;;;;;;;;;15.50;99.90;;;;;;4164988;28;20179;-52
2022/02/20 11:54:54;;;;;;;;;;;15.60;99.90;;;;;;4174000;28;19928;-54
2022/02/20 11:57:15;;;;;;;;;;;15.80;99.90;;;;;;4177752;28;19929;-54
2022/02/20 11:59:18;;;;;;;;;;;15.50;99.90;;;;;;4169214;28;20710;-54
2022/02/20 12:01:20;;;;;;;;;;;15.30;99.90;;;;;;4163456;28;19971;-54
2022/02/20 12:03:22;;;;;;;;;;;15.50;99.90;;;;;;4176518;28;20056;-53